[Jeden Freitag | 19:00z - 22:00z| EDDF] Frankfurt Friday

Zu Eventkalender hinzugefügt: 53 Daten

RG Frankfurt

RG Frankfurt - Leitung
Wie jeden Freitag ist Frankfurt wieder bereit für eure Flüge! Egal ob ihr Cargo oder Passagiere fliegt, wir bringen euch sicher über den größten Flughafen Deutschlands. Von 20:00lcl bis 23:00lcl geben wir unser Bestes für euch.

As every Friday, Frankfurt is ready for your flights! It doesn’t matter whether you are flying passengers or cargo, we will make sure you are safely travelling from or to the biggest airport in the whole of Germany. From 20:00lcl to 23:00lcl (18:00z to 21:00z in the summer, 19:00z to 22:00z in the winter) we are doing our best for you.


Charts (please consider especially the vAIP) https://vatsim-germany.org/pilots/aerodromes/EDDF
 

Matan Budimir

1375048
RG Frankfurt - Event
Heute ist wieder Frankfurt Friday!

METAR - EDDF 111050Z 17010KT 140V210 9999 FEW012 SCT016 15/11 Q1017 NOSIG
TAF - EDDF 110732Z 1107/1212 20006KT 9999 BKN014 BECMG 1107/1110 21012KT BKN020 PROB30 TEMPO 1111/1117 22015G25KT BECMG 1112/1115 SCT030 BECMG 1118/1120 19007KT BECMG 1210/1212 22012KT
 
Zuletzt bearbeitet:
Auch heute Abend ist wieder Frankfurt Friday! In der ersten Stunde (18-19z) haben wir ein TWR Abschlusstraining, schnappt euch also eure Rasenmäher oder Blechbüchsen und fliegt am größten internationalen Flughafen Deutschlands um den Trainee ordentlich ins Schwitzen zu bringen.

METAR schrieb:
EDDF 181120Z 18009KT 150V210 9999 -RA FEW008 15/14 Q1009 NOSIG
TAF schrieb:
EDDF 180500Z 1806/1912 19008KT 9999 SCT020 BKN035 PROB40 TEMPO 1806/1808 BKN005 BECMG 1808/1811 21015G25KT TEMPO 1809/1816 21020G35KT 3000 SHRA BKN010 BKN025CB BECMG 1817/1819 19005KT TEMPO 1904/1912 4000 RA OVC010
 

Jan Doehring

1356262
NAV - Leitung
RG München - NAV
Jungens, jat habt'r spitze jemacht... Ehm halt, falsche Stadt. Naja, wirklich toller Service von vielen Stationen, welche ich dank meines Doppelgewinns beim Go-Around-Lotto noch zweimal zusätzlich genießen durfte... Aber der Tower weiß ja, was dann beim CTP auf ihn zukommt (#KreisingÜberFreising).
Auch wenn das mit der 25R beim dritten Anlauf nicht ganz geklappt hat (#rtfm), war es echt großes Kino ;).
 

Jan Doehring

1356262
NAV - Leitung
RG München - NAV
Ohje, ich sehs kommen: Die RG Frankfurt tritt aufgrund von Kommunikationsproblemen aus VATGER aus und ernennt Hessisch zur offiziellen Funksprache.
Na dann, druff un dewedder, nächsten Frankfurt Friday dann komplett auf Hessisch (Und ja auch für die Leute, die 1045 als tenfortyfive aussprechen)?!

EDIT: Beim Thema Kommunikation sollte ich besser leise sein, #Mirkönnetällesaußerhochdeutsch.
 
Bis jetzt hat noch jeder jeden verstanne. Aber im realen Leben habe ich auch schon den Delivery uff Frankforterisch schwätze hörn, als er den Flugplan einer Lufthansa nicht gleich fand. "Lufthansa 123, isch habb nix." "Ach do hinne seid ihr ja, ei was mescht ihr dann do hinne inner Eck'?" Und direkt danach ging es dann auf Englisch weiter. Ist schon irgendwie seltsam, wenn sich zwei Menschen auf Deutsch Informationen austauschen können, daß sie daß dann nicht dürfen.
 

Cedric Mohler

1452943
RG Frankfurt - NAV
"Fränkfurt Tower, Lufthaaansa fifty-one thrity-two, a Boeing triple seven at stand alpha forty, we have information quebec on board and QNH ten twenty-two requesting IFR-clearance to kilo bravo oscar sierra."
"Gude, Informazion Quebec korrekt, Anlasse erlaubt. Freigegewwe noach Boston iwwer OBOKA oans Golf Abflug. Fluggeplante Route, staje sie fuenfdausend Fuss, squawk zwu oans oans fuenf."

So? (Man verzeihe mein Hessisch ;) )
 

Jan Hergeth

1419731
RG Frankfurt - Leitung
RG Frankfurt - Mentor
Wie sieht es Moie aus? Ist der Flughafen der schönsten Stadt der Welt auch wieder offen?
Natürlich öffnen wir auch heute Abend wieder den Frankfurter Flughafen :). Egal, ob zum letzten Test der Maschine vor dem CTP morgen oder nur für einige Platzrunden, alle sind willkommen. Das Wetter heute Abend verspricht sanfte Anflüge:
EDDF 250500Z 2506/2612 20005KT 9999 BKN035 BECMG 2509/2512 22010KT BECMG 2515/2517 19005KT BECMG 2519/2521 VRB03KT TEMPO 2602/2609 2500 BCFG BECMG 2606/2609 20006KT
 
Zuletzt bearbeitet:
Freitag? natürlich Frankfurt Friday

auch wenn das Wetter nicht so nice aussieht, ist Frankfurt heute wieder besetzt

EDDF 011425Z 0114/0218 12004KT 6000 SCT005 BKN008
TEMPO 0114/0121 2500 DZRA BR BKN003 BECMG 0118/0121 19008KT
TEMPO 0121/0211 3000 -SHRA BR OVC005 BKN012TCU BECMG 0203/0206 20015G25KT SCT010 BKN015
 
Oben